sensor_id;sensor_type;location;lat;lon;timestamp;P1;durP1;ratioP1;P2;durP2;ratioP2
11498;SDS011;5806;48.748;9.278;2023-05-10T00:00:00;7.13;;;6.43;;
11498;SDS011;5806;48.748;9.278;2023-05-10T00:02:29;6.93;;;6.13;;
11498;SDS011;5806;48.748;9.278;2023-05-10T00:04:56;7.17;;;6.47;;
11498;SDS011;5806;48.748;9.278;2023-05-10T00:07:24;6.60;;;6.00;;
11498;SDS011;5806;48.748;9.278;2023-05-10T00:09:52;8.30;;;7.00;;
11498;SDS011;5806;48.748;9.278;2023-05-10T00:12:19;7.37;;;6.67;;
11498;SDS011;5806;48.748;9.278;2023-05-10T00:14:47;7.73;;;5.80;;
11498;SDS011;5806;48.748;9.278;2023-05-10T00:17:15;7.47;;;6.67;;
11498;SDS011;5806;48.748;9.278;2023-05-10T00:19:42;7.87;;;6.97;;
11498;SDS011;5806;48.748;9.278;2023-05-10T00:22:10;10.40;;;7.40;;
11498;SDS011;5806;48.748;9.278;2023-05-10T00:24:37;8.33;;;7.43;;
11498;SDS011;5806;48.748;9.278;2023-05-10T00:27:05;9.20;;;8.30;;
11498;SDS011;5806;48.748;9.278;2023-05-10T00:29:32;8.33;;;7.20;;
11498;SDS011;5806;48.748;9.278;2023-05-10T00:32:00;8.10;;;7.30;;
11498;SDS011;5806;48.748;9.278;2023-05-10T00:34:27;10.83;;;8.53;;
11498;SDS011;5806;48.748;9.278;2023-05-10T00:36:55;8.10;;;7.30;;
11498;SDS011;5806;48.748;9.278;2023-05-10T00:39:23;8.43;;;7.30;;
11498;SDS011;5806;48.748;9.278;2023-05-10T00:41:52;9.63;;;7.53;;
11498;SDS011;5806;48.748;9.278;2023-05-10T00:44:20;9.50;;;8.03;;
11498;SDS011;5806;48.748;9.278;2023-05-10T00:46:47;8.93;;;7.77;;
11498;SDS011;5806;48.748;9.278;2023-05-10T00:49:15;9.93;;;8.70;;
11498;SDS011;5806;48.748;9.278;2023-05-10T00:51:44;9.73;;;8.37;;
11498;SDS011;5806;48.748;9.278;2023-05-10T00:54:12;10.20;;;8.03;;
11498;SDS011;5806;48.748;9.278;2023-05-10T00:56:41;9.87;;;8.70;;
11498;SDS011;5806;48.748;9.278;2023-05-10T00:59:10;11.20;;;9.50;;
11498;SDS011;5806;48.748;9.278;2023-05-10T01:01:38;10.67;;;7.97;;
11498;SDS011;5806;48.748;9.278;2023-05-10T01:04:05;11.33;;;8.63;;
11498;SDS011;5806;48.748;9.278;2023-05-10T01:06:34;10.50;;;8.90;;
11498;SDS011;5806;48.748;9.278;2023-05-10T01:09:01;11.43;;;9.33;;
11498;SDS011;5806;48.748;9.278;2023-05-10T01:11:29;12.20;;;10.40;;
11498;SDS011;5806;48.748;9.278;2023-05-10T01:13:57;10.87;;;9.77;;
11498;SDS011;5806;48.748;9.278;2023-05-10T01:16:25;12.37;;;10.10;;
11498;SDS011;5806;48.748;9.278;2023-05-10T01:18:54;12.37;;;10.43;;
11498;SDS011;5806;48.748;9.278;2023-05-10T01:21:23;12.53;;;10.63;;
11498;SDS011;5806;48.748;9.278;2023-05-10T01:32:48;14.63;;;11.80;;
11498;SDS011;5806;48.748;9.278;2023-05-10T01:35:25;13.83;;;11.50;;
11498;SDS011;5806;48.748;9.278;2023-05-10T01:43:22;15.63;;;11.93;;
11498;SDS011;5806;48.748;9.278;2023-05-10T01:48:22;14.43;;;11.67;;
11498;SDS011;5806;48.748;9.278;2023-05-10T01:50:52;13.90;;;11.33;;
11498;SDS011;5806;48.748;9.278;2023-05-10T01:53:22;14.63;;;11.73;;
11498;SDS011;5806;48.748;9.278;2023-05-10T01:55:55;14.90;;;11.97;;
11498;SDS011;5806;48.748;9.278;2023-05-10T01:58:25;16.40;;;12.33;;
11498;SDS011;5806;48.748;9.278;2023-05-10T02:00:57;15.50;;;11.90;;
11498;SDS011;5806;48.748;9.278;2023-05-10T02:03:27;16.37;;;11.90;;
11498;SDS011;5806;48.748;9.278;2023-05-10T02:05:56;15.83;;;11.47;;
11498;SDS011;5806;48.748;9.278;2023-05-10T02:08:25;10.67;;;8.70;;
11498;SDS011;5806;48.748;9.278;2023-05-10T02:10:54;8.23;;;7.43;;
11498;SDS011;5806;48.748;9.278;2023-05-10T02:13:24;11.23;;;8.03;;
11498;SDS011;5806;48.748;9.278;2023-05-10T02:15:54;9.13;;;8.20;;
11498;SDS011;5806;48.748;9.278;2023-05-10T02:18:23;9.47;;;7.63;;
11498;SDS011;5806;48.748;9.278;2023-05-10T02:20:55;10.33;;;7.00;;
11498;SDS011;5806;48.748;9.278;2023-05-10T02:23:24;8.53;;;6.40;;
11498;SDS011;5806;48.748;9.278;2023-05-10T02:25:52;7.30;;;6.43;;
11498;SDS011;5806;48.748;9.278;2023-05-10T02:28:23;9.50;;;6.10;;
11498;SDS011;5806;48.748;9.278;2023-05-10T02:30:52;6.77;;;6.07;;
11498;SDS011;5806;48.748;9.278;2023-05-10T02:33:21;7.40;;;5.73;;
11498;SDS011;5806;48.748;9.278;2023-05-10T02:35:50;7.77;;;5.53;;
11498;SDS011;5806;48.748;9.278;2023-05-10T02:38:19;8.17;;;6.47;;
11498;SDS011;5806;48.748;9.278;2023-05-10T02:40:49;6.87;;;5.47;;
11498;SDS011;5806;48.748;9.278;2023-05-10T02:43:18;9.03;;;6.47;;
11498;SDS011;5806;48.748;9.278;2023-05-10T02:45:49;8.97;;;6.00;;
11498;SDS011;5806;48.748;9.278;2023-05-10T02:48:16;9.47;;;5.60;;
11498;SDS011;5806;48.748;9.278;2023-05-10T02:50:44;7.33;;;5.67;;
11498;SDS011;5806;48.748;9.278;2023-05-10T02:53:15;9.00;;;6.10;;
11498;SDS011;5806;48.748;9.278;2023-05-10T02:55:53;6.60;;;5.90;;
11498;SDS011;5806;48.748;9.278;2023-05-10T02:58:22;7.87;;;6.00;;
11498;SDS011;5806;48.748;9.278;2023-05-10T03:00:49;8.73;;;5.63;;
11498;SDS011;5806;48.748;9.278;2023-05-10T03:03:17;8.10;;;6.30;;
11498;SDS011;5806;48.748;9.278;2023-05-10T03:05:46;7.87;;;6.33;;
11498;SDS011;5806;48.748;9.278;2023-05-10T03:08:14;9.30;;;6.87;;
11498;SDS011;5806;48.748;9.278;2023-05-10T03:10:45;7.17;;;6.47;;
11498;SDS011;5806;48.748;9.278;2023-05-10T03:16:08;8.20;;;7.03;;
11498;SDS011;5806;48.748;9.278;2023-05-10T03:18:44;8.43;;;7.00;;
11498;SDS011;5806;48.748;9.278;2023-05-10T03:21:16;9.53;;;7.07;;
11498;SDS011;5806;48.748;9.278;2023-05-10T03:23:50;10.13;;;7.53;;
11498;SDS011;5806;48.748;9.278;2023-05-10T03:26:26;10.83;;;7.13;;
11498;SDS011;5806;48.748;9.278;2023-05-10T03:28:55;7.93;;;6.77;;
11498;SDS011;5806;48.748;9.278;2023-05-10T03:31:24;8.77;;;6.70;;
11498;SDS011;5806;48.748;9.278;2023-05-10T03:33:52;10.37;;;6.63;;
11498;SDS011;5806;48.748;9.278;2023-05-10T03:36:20;7.23;;;5.97;;
11498;SDS011;5806;48.748;9.278;2023-05-10T03:38:47;10.27;;;7.00;;
11498;SDS011;5806;48.748;9.278;2023-05-10T03:41:15;8.90;;;5.60;;
11498;SDS011;5806;48.748;9.278;2023-05-10T03:43:42;7.57;;;5.93;;
11498;SDS011;5806;48.748;9.278;2023-05-10T03:46:10;8.20;;;5.93;;
11498;SDS011;5806;48.748;9.278;2023-05-10T03:48:38;8.07;;;6.00;;
11498;SDS011;5806;48.748;9.278;2023-05-10T03:51:05;7.80;;;6.37;;
11498;SDS011;5806;48.748;9.278;2023-05-10T03:53:33;6.43;;;5.43;;
11498;SDS011;5806;48.748;9.278;2023-05-10T03:56:01;9.00;;;6.83;;
11498;SDS011;5806;48.748;9.278;2023-05-10T03:58:28;8.03;;;6.40;;
11498;SDS011;5806;48.748;9.278;2023-05-10T04:00:56;8.80;;;6.40;;
11498;SDS011;5806;48.748;9.278;2023-05-10T04:03:23;9.40;;;6.27;;
11498;SDS011;5806;48.748;9.278;2023-05-10T04:06:00;11.23;;;7.27;;
11498;SDS011;5806;48.748;9.278;2023-05-10T04:08:28;8.63;;;7.17;;
11498;SDS011;5806;48.748;9.278;2023-05-10T04:11:09;7.97;;;6.40;;
11498;SDS011;5806;48.748;9.278;2023-05-10T04:13:39;9.47;;;6.80;;
11498;SDS011;5806;48.748;9.278;2023-05-10T04:16:06;9.13;;;7.33;;
11498;SDS011;5806;48.748;9.278;2023-05-10T04:18:34;11.30;;;8.27;;
11498;SDS011;5806;48.748;9.278;2023-05-10T04:21:01;10.87;;;8.67;;
11498;SDS011;5806;48.748;9.278;2023-05-10T04:23:29;10.87;;;8.10;;
11498;SDS011;5806;48.748;9.278;2023-05-10T04:26:02;10.50;;;7.33;;
11498;SDS011;5806;48.748;9.278;2023-05-10T04:28:26;9.30;;;7.90;;
11498;SDS011;5806;48.748;9.278;2023-05-10T04:31:00;7.93;;;7.13;;
11498;SDS011;5806;48.748;9.278;2023-05-10T04:33:24;10.60;;;7.90;;
11498;SDS011;5806;48.748;9.278;2023-05-10T04:35:52;9.73;;;7.17;;
11498;SDS011;5806;48.748;9.278;2023-05-10T04:38:19;7.83;;;7.03;;
11498;SDS011;5806;48.748;9.278;2023-05-10T04:40:47;16.17;;;8.40;;
11498;SDS011;5806;48.748;9.278;2023-05-10T04:43:14;16.07;;;9.33;;
11498;SDS011;5806;48.748;9.278;2023-05-10T04:45:42;16.57;;;9.90;;
11498;SDS011;5806;48.748;9.278;2023-05-10T04:48:09;15.80;;;10.20;;
11498;SDS011;5806;48.748;9.278;2023-05-10T04:50:37;14.50;;;10.13;;
11498;SDS011;5806;48.748;9.278;2023-05-10T04:53:05;14.93;;;10.30;;
11498;SDS011;5806;48.748;9.278;2023-05-10T04:55:33;14.07;;;10.47;;
11498;SDS011;5806;48.748;9.278;2023-05-10T04:58:01;13.83;;;9.80;;
11498;SDS011;5806;48.748;9.278;2023-05-10T05:00:28;10.67;;;8.97;;
11498;SDS011;5806;48.748;9.278;2023-05-10T05:03:00;14.30;;;10.87;;
11498;SDS011;5806;48.748;9.278;2023-05-10T05:05:27;15.93;;;11.77;;
11498;SDS011;5806;48.748;9.278;2023-05-10T05:07:55;16.97;;;13.13;;
11498;SDS011;5806;48.748;9.278;2023-05-10T05:10:22;18.60;;;13.63;;
11498;SDS011;5806;48.748;9.278;2023-05-10T05:12:50;18.10;;;14.47;;
11498;SDS011;5806;48.748;9.278;2023-05-10T05:15:17;19.57;;;15.10;;
11498;SDS011;5806;48.748;9.278;2023-05-10T05:17:45;18.60;;;14.40;;
11498;SDS011;5806;48.748;9.278;2023-05-10T05:20:13;24.63;;;15.57;;
11498;SDS011;5806;48.748;9.278;2023-05-10T05:22:40;19.13;;;15.17;;
11498;SDS011;5806;48.748;9.278;2023-05-10T05:25:08;21.43;;;15.27;;
11498;SDS011;5806;48.748;9.278;2023-05-10T05:27:36;20.93;;;14.97;;
11498;SDS011;5806;48.748;9.278;2023-05-10T05:30:04;21.23;;;15.77;;
11498;SDS011;5806;48.748;9.278;2023-05-10T05:32:32;21.23;;;16.03;;
11498;SDS011;5806;48.748;9.278;2023-05-10T05:35:00;21.27;;;15.60;;
11498;SDS011;5806;48.748;9.278;2023-05-10T05:37:29;24.83;;;16.63;;
11498;SDS011;5806;48.748;9.278;2023-05-10T05:39:57;21.10;;;15.60;;
11498;SDS011;5806;48.748;9.278;2023-05-10T05:42:26;22.67;;;16.17;;
11498;SDS011;5806;48.748;9.278;2023-05-10T05:44:53;20.87;;;14.53;;
11498;SDS011;5806;48.748;9.278;2023-05-10T05:47:21;20.07;;;13.67;;
11498;SDS011;5806;48.748;9.278;2023-05-10T05:49:49;19.60;;;13.50;;
11498;SDS011;5806;48.748;9.278;2023-05-10T05:52:16;20.27;;;13.50;;
11498;SDS011;5806;48.748;9.278;2023-05-10T05:54:43;21.93;;;15.00;;
11498;SDS011;5806;48.748;9.278;2023-05-10T05:57:11;20.37;;;13.40;;
11498;SDS011;5806;48.748;9.278;2023-05-10T05:59:38;16.90;;;13.90;;
11498;SDS011;5806;48.748;9.278;2023-05-10T06:02:08;19.80;;;13.40;;
11498;SDS011;5806;48.748;9.278;2023-05-10T06:04:36;21.10;;;13.63;;
11498;SDS011;5806;48.748;9.278;2023-05-10T06:07:04;19.13;;;13.53;;
11498;SDS011;5806;48.748;9.278;2023-05-10T06:09:31;23.20;;;14.23;;
11498;SDS011;5806;48.748;9.278;2023-05-10T06:11:58;21.57;;;13.80;;
11498;SDS011;5806;48.748;9.278;2023-05-10T06:14:27;19.00;;;13.47;;
11498;SDS011;5806;48.748;9.278;2023-05-10T06:16:54;20.97;;;14.93;;
11498;SDS011;5806;48.748;9.278;2023-05-10T06:19:21;18.23;;;13.57;;
11498;SDS011;5806;48.748;9.278;2023-05-10T06:21:49;20.67;;;13.77;;
11498;SDS011;5806;48.748;9.278;2023-05-10T06:24:16;23.23;;;14.30;;
11498;SDS011;5806;48.748;9.278;2023-05-10T06:26:44;20.97;;;14.03;;
11498;SDS011;5806;48.748;9.278;2023-05-10T06:29:11;20.90;;;15.17;;
11498;SDS011;5806;48.748;9.278;2023-05-10T06:31:40;22.53;;;14.27;;
11498;SDS011;5806;48.748;9.278;2023-05-10T06:34:08;23.63;;;14.73;;
11498;SDS011;5806;48.748;9.278;2023-05-10T06:36:37;19.63;;;13.40;;
11498;SDS011;5806;48.748;9.278;2023-05-10T06:39:04;21.97;;;14.50;;
11498;SDS011;5806;48.748;9.278;2023-05-10T06:41:32;20.40;;;14.53;;
11498;SDS011;5806;48.748;9.278;2023-05-10T06:44:00;23.53;;;14.23;;
11498;SDS011;5806;48.748;9.278;2023-05-10T06:46:27;19.73;;;13.60;;
11498;SDS011;5806;48.748;9.278;2023-05-10T06:48:54;20.80;;;14.37;;
11498;SDS011;5806;48.748;9.278;2023-05-10T06:51:22;20.60;;;13.17;;
11498;SDS011;5806;48.748;9.278;2023-05-10T06:53:49;17.37;;;11.93;;
11498;SDS011;5806;48.748;9.278;2023-05-10T06:56:17;18.50;;;13.07;;
11498;SDS011;5806;48.748;9.278;2023-05-10T06:58:46;23.43;;;14.57;;
11498;SDS011;5806;48.748;9.278;2023-05-10T07:01:14;16.67;;;13.33;;
11498;SDS011;5806;48.748;9.278;2023-05-10T07:03:41;23.33;;;13.33;;
11498;SDS011;5806;48.748;9.278;2023-05-10T07:06:09;19.83;;;14.30;;
11498;SDS011;5806;48.748;9.278;2023-05-10T07:08:37;24.30;;;14.50;;
11498;SDS011;5806;48.748;9.278;2023-05-10T07:11:05;21.83;;;13.97;;
11498;SDS011;5806;48.748;9.278;2023-05-10T07:13:33;20.03;;;14.77;;
11498;SDS011;5806;48.748;9.278;2023-05-10T07:16:01;20.73;;;13.70;;
11498;SDS011;5806;48.748;9.278;2023-05-10T07:18:29;21.07;;;14.53;;
11498;SDS011;5806;48.748;9.278;2023-05-10T07:20:57;22.13;;;14.80;;
11498;SDS011;5806;48.748;9.278;2023-05-10T07:23:24;21.27;;;13.87;;
11498;SDS011;5806;48.748;9.278;2023-05-10T07:25:52;21.67;;;14.17;;
11498;SDS011;5806;48.748;9.278;2023-05-10T07:28:19;25.23;;;15.43;;
11498;SDS011;5806;48.748;9.278;2023-05-10T07:30:48;21.87;;;14.83;;
11498;SDS011;5806;48.748;9.278;2023-05-10T07:33:16;24.77;;;15.07;;
11498;SDS011;5806;48.748;9.278;2023-05-10T07:35:43;23.13;;;15.10;;
11498;SDS011;5806;48.748;9.278;2023-05-10T07:38:11;25.00;;;15.33;;
11498;SDS011;5806;48.748;9.278;2023-05-10T07:40:41;21.10;;;14.73;;
11498;SDS011;5806;48.748;9.278;2023-05-10T07:43:10;23.83;;;14.63;;
11498;SDS011;5806;48.748;9.278;2023-05-10T07:45:37;26.43;;;15.17;;
11498;SDS011;5806;48.748;9.278;2023-05-10T07:48:05;23.37;;;14.53;;
11498;SDS011;5806;48.748;9.278;2023-05-10T07:50:32;23.17;;;14.10;;
11498;SDS011;5806;48.748;9.278;2023-05-10T07:52:59;22.37;;;14.63;;
11498;SDS011;5806;48.748;9.278;2023-05-10T07:55:27;18.50;;;13.03;;
11498;SDS011;5806;48.748;9.278;2023-05-10T07:57:54;22.97;;;13.60;;
11498;SDS011;5806;48.748;9.278;2023-05-10T08:00:22;21.30;;;14.17;;
11498;SDS011;5806;48.748;9.278;2023-05-10T08:02:49;19.60;;;12.70;;
11498;SDS011;5806;48.748;9.278;2023-05-10T08:05:17;17.83;;;12.43;;
11498;SDS011;5806;48.748;9.278;2023-05-10T08:07:44;19.10;;;13.00;;
11498;SDS011;5806;48.748;9.278;2023-05-10T08:10:12;23.37;;;12.83;;
11498;SDS011;5806;48.748;9.278;2023-05-10T08:12:39;20.33;;;12.30;;
11498;SDS011;5806;48.748;9.278;2023-05-10T08:15:07;17.97;;;12.17;;
11498;SDS011;5806;48.748;9.278;2023-05-10T08:17:35;22.27;;;12.47;;
11498;SDS011;5806;48.748;9.278;2023-05-10T08:20:03;21.37;;;12.03;;
11498;SDS011;5806;48.748;9.278;2023-05-10T08:22:31;16.60;;;11.90;;
11498;SDS011;5806;48.748;9.278;2023-05-10T08:24:58;15.87;;;11.80;;
11498;SDS011;5806;48.748;9.278;2023-05-10T08:27:25;16.27;;;11.77;;
11498;SDS011;5806;48.748;9.278;2023-05-10T08:29:53;15.47;;;11.10;;
11498;SDS011;5806;48.748;9.278;2023-05-10T08:32:20;15.83;;;10.57;;
11498;SDS011;5806;48.748;9.278;2023-05-10T08:34:48;19.17;;;12.50;;
11498;SDS011;5806;48.748;9.278;2023-05-10T08:37:15;17.57;;;10.87;;
11498;SDS011;5806;48.748;9.278;2023-05-10T08:39:43;15.60;;;11.27;;
11498;SDS011;5806;48.748;9.278;2023-05-10T08:42:12;15.40;;;10.70;;
11498;SDS011;5806;48.748;9.278;2023-05-10T08:44:43;15.97;;;11.03;;
11498;SDS011;5806;48.748;9.278;2023-05-10T08:47:12;15.37;;;9.63;;
11498;SDS011;5806;48.748;9.278;2023-05-10T08:49:41;13.20;;;9.63;;
11498;SDS011;5806;48.748;9.278;2023-05-10T08:52:10;15.87;;;10.10;;
11498;SDS011;5806;48.748;9.278;2023-05-10T08:54:39;16.33;;;10.40;;
11498;SDS011;5806;48.748;9.278;2023-05-10T08:57:07;17.30;;;9.70;;
11498;SDS011;5806;48.748;9.278;2023-05-10T08:59:35;12.37;;;9.10;;
11498;SDS011;5806;48.748;9.278;2023-05-10T09:02:05;14.87;;;9.50;;
11498;SDS011;5806;48.748;9.278;2023-05-10T09:04:32;12.33;;;9.83;;
11498;SDS011;5806;48.748;9.278;2023-05-10T09:07:00;14.53;;;9.60;;
11498;SDS011;5806;48.748;9.278;2023-05-10T09:09:27;12.43;;;9.23;;
11498;SDS011;5806;48.748;9.278;2023-05-10T09:11:55;12.87;;;8.43;;
11498;SDS011;5806;48.748;9.278;2023-05-10T09:14:23;13.10;;;10.07;;
11498;SDS011;5806;48.748;9.278;2023-05-10T09:16:52;15.83;;;10.67;;
11498;SDS011;5806;48.748;9.278;2023-05-10T09:19:20;15.73;;;11.43;;
11498;SDS011;5806;48.748;9.278;2023-05-10T09:21:52;19.07;;;11.43;;
11498;SDS011;5806;48.748;9.278;2023-05-10T09:24:19;17.53;;;12.27;;
11498;SDS011;5806;48.748;9.278;2023-05-10T09:26:50;20.73;;;13.63;;
11498;SDS011;5806;48.748;9.278;2023-05-10T09:29:17;19.43;;;12.50;;
11498;SDS011;5806;48.748;9.278;2023-05-10T09:31:48;19.17;;;12.47;;
11498;SDS011;5806;48.748;9.278;2023-05-10T09:34:22;18.17;;;12.87;;
11498;SDS011;5806;48.748;9.278;2023-05-10T09:36:57;21.77;;;14.30;;
11498;SDS011;5806;48.748;9.278;2023-05-10T09:39:30;19.30;;;14.13;;
11498;SDS011;5806;48.748;9.278;2023-05-10T09:42:03;22.23;;;13.23;;
11498;SDS011;5806;48.748;9.278;2023-05-10T09:44:32;20.90;;;13.37;;
11498;SDS011;5806;48.748;9.278;2023-05-10T09:47:01;24.27;;;15.37;;
11498;SDS011;5806;48.748;9.278;2023-05-10T09:49:29;24.97;;;14.80;;
11498;SDS011;5806;48.748;9.278;2023-05-10T09:52:00;25.23;;;15.60;;
11498;SDS011;5806;48.748;9.278;2023-05-10T09:54:28;24.60;;;14.77;;
11498;SDS011;5806;48.748;9.278;2023-05-10T09:56:56;26.33;;;15.87;;
11498;SDS011;5806;48.748;9.278;2023-05-10T09:59:25;25.73;;;16.07;;
11498;SDS011;5806;48.748;9.278;2023-05-10T10:01:55;27.63;;;16.47;;
11498;SDS011;5806;48.748;9.278;2023-05-10T10:04:22;30.80;;;17.33;;
11498;SDS011;5806;48.748;9.278;2023-05-10T10:07:00;32.70;;;17.73;;
11498;SDS011;5806;48.748;9.278;2023-05-10T10:09:31;30.70;;;18.50;;
11498;SDS011;5806;48.748;9.278;2023-05-10T10:12:00;32.20;;;18.37;;
11498;SDS011;5806;48.748;9.278;2023-05-10T10:14:30;29.53;;;17.77;;
11498;SDS011;5806;48.748;9.278;2023-05-10T10:16:57;30.70;;;18.33;;
11498;SDS011;5806;48.748;9.278;2023-05-10T10:19:27;42.23;;;19.90;;
11498;SDS011;5806;48.748;9.278;2023-05-10T10:21:56;28.40;;;17.87;;
11498;SDS011;5806;48.748;9.278;2023-05-10T10:24:24;34.37;;;17.77;;
11498;SDS011;5806;48.748;9.278;2023-05-10T10:26:52;27.73;;;16.67;;
11498;SDS011;5806;48.748;9.278;2023-05-10T10:32:04;22.30;;;15.43;;
11498;SDS011;5806;48.748;9.278;2023-05-10T10:34:47;20.87;;;13.90;;
11498;SDS011;5806;48.748;9.278;2023-05-10T10:37:15;23.13;;;14.97;;
11498;SDS011;5806;48.748;9.278;2023-05-10T10:39:43;20.83;;;14.60;;
11498;SDS011;5806;48.748;9.278;2023-05-10T10:42:10;22.67;;;16.43;;
11498;SDS011;5806;48.748;9.278;2023-05-10T10:44:38;21.17;;;15.23;;
11498;SDS011;5806;48.748;9.278;2023-05-10T10:52:27;25.00;;;16.00;;
11498;SDS011;5806;48.748;9.278;2023-05-10T10:57:32;21.80;;;15.40;;
11498;SDS011;5806;48.748;9.278;2023-05-10T11:02:51;19.87;;;14.17;;
11498;SDS011;5806;48.748;9.278;2023-05-10T11:05:23;19.73;;;14.33;;
11498;SDS011;5806;48.748;9.278;2023-05-10T11:07:56;19.87;;;13.70;;
11498;SDS011;5806;48.748;9.278;2023-05-10T11:10:25;22.07;;;15.80;;
11498;SDS011;5806;48.748;9.278;2023-05-10T11:13:00;20.53;;;14.83;;
11498;SDS011;5806;48.748;9.278;2023-05-10T11:18:18;17.40;;;11.60;;
11498;SDS011;5806;48.748;9.278;2023-05-10T11:20:50;14.40;;;10.30;;
11498;SDS011;5806;48.748;9.278;2023-05-10T11:23:18;17.03;;;10.60;;
11498;SDS011;5806;48.748;9.278;2023-05-10T11:25:47;11.93;;;9.20;;
11498;SDS011;5806;48.748;9.278;2023-05-10T11:28:19;13.47;;;9.13;;
11498;SDS011;5806;48.748;9.278;2023-05-10T11:30:46;13.50;;;10.23;;
11498;SDS011;5806;48.748;9.278;2023-05-10T11:33:17;16.20;;;10.43;;
11498;SDS011;5806;48.748;9.278;2023-05-10T11:35:45;13.63;;;9.80;;
11498;SDS011;5806;48.748;9.278;2023-05-10T11:38:13;13.83;;;9.33;;
11498;SDS011;5806;48.748;9.278;2023-05-10T11:40:40;13.20;;;9.43;;
11498;SDS011;5806;48.748;9.278;2023-05-10T11:43:09;15.60;;;9.67;;
11498;SDS011;5806;48.748;9.278;2023-05-10T11:45:37;11.87;;;8.03;;
11498;SDS011;5806;48.748;9.278;2023-05-10T11:48:04;10.93;;;7.47;;
11498;SDS011;5806;48.748;9.278;2023-05-10T11:50:32;13.27;;;8.40;;
11498;SDS011;5806;48.748;9.278;2023-05-10T11:52:59;10.43;;;7.60;;
11498;SDS011;5806;48.748;9.278;2023-05-10T11:55:27;10.40;;;7.70;;
11498;SDS011;5806;48.748;9.278;2023-05-10T11:57:59;11.80;;;8.57;;
11498;SDS011;5806;48.748;9.278;2023-05-10T12:00:26;9.07;;;6.53;;
11498;SDS011;5806;48.748;9.278;2023-05-10T12:02:53;9.03;;;7.17;;
11498;SDS011;5806;48.748;9.278;2023-05-10T12:05:21;10.10;;;7.17;;
11498;SDS011;5806;48.748;9.278;2023-05-10T12:07:49;10.00;;;7.13;;
11498;SDS011;5806;48.748;9.278;2023-05-10T12:10:17;7.50;;;5.90;;
11498;SDS011;5806;48.748;9.278;2023-05-10T12:12:47;8.73;;;6.80;;
11498;SDS011;5806;48.748;9.278;2023-05-10T12:15:18;10.33;;;7.10;;
11498;SDS011;5806;48.748;9.278;2023-05-10T12:17:50;10.83;;;7.50;;
11498;SDS011;5806;48.748;9.278;2023-05-10T12:20:18;10.83;;;8.13;;
11498;SDS011;5806;48.748;9.278;2023-05-10T12:22:51;6.67;;;5.47;;
11498;SDS011;5806;48.748;9.278;2023-05-10T12:25:24;6.33;;;5.27;;
11498;SDS011;5806;48.748;9.278;2023-05-10T12:27:55;7.23;;;4.93;;
11498;SDS011;5806;48.748;9.278;2023-05-10T12:30:26;5.83;;;4.53;;
11498;SDS011;5806;48.748;9.278;2023-05-10T12:32:59;6.47;;;4.60;;
11498;SDS011;5806;48.748;9.278;2023-05-10T12:35:25;4.00;;;3.30;;
11498;SDS011;5806;48.748;9.278;2023-05-10T12:37:52;3.00;;;2.70;;
11498;SDS011;5806;48.748;9.278;2023-05-10T12:40:20;4.43;;;3.13;;
11498;SDS011;5806;48.748;9.278;2023-05-10T12:42:47;2.90;;;2.60;;
11498;SDS011;5806;48.748;9.278;2023-05-10T12:45:15;5.87;;;3.20;;
11498;SDS011;5806;48.748;9.278;2023-05-10T12:47:44;6.93;;;3.80;;
11498;SDS011;5806;48.748;9.278;2023-05-10T12:50:12;4.13;;;3.60;;
11498;SDS011;5806;48.748;9.278;2023-05-10T12:52:39;5.90;;;3.43;;
11498;SDS011;5806;48.748;9.278;2023-05-10T12:55:07;5.07;;;3.87;;
11498;SDS011;5806;48.748;9.278;2023-05-10T12:57:34;4.87;;;3.30;;
11498;SDS011;5806;48.748;9.278;2023-05-10T13:00:02;4.33;;;3.93;;
11498;SDS011;5806;48.748;9.278;2023-05-10T13:02:30;5.20;;;4.37;;
11498;SDS011;5806;48.748;9.278;2023-05-10T13:04:58;5.10;;;4.10;;
11498;SDS011;5806;48.748;9.278;2023-05-10T13:07:25;4.33;;;3.93;;
11498;SDS011;5806;48.748;9.278;2023-05-10T13:09:53;4.50;;;4.10;;
11498;SDS011;5806;48.748;9.278;2023-05-10T13:12:20;3.40;;;3.10;;
11498;SDS011;5806;48.748;9.278;2023-05-10T13:14:47;3.37;;;2.90;;
11498;SDS011;5806;48.748;9.278;2023-05-10T13:17:15;3.63;;;3.33;;
11498;SDS011;5806;48.748;9.278;2023-05-10T13:19:42;3.80;;;3.10;;
11498;SDS011;5806;48.748;9.278;2023-05-10T13:22:10;3.40;;;2.73;;
11498;SDS011;5806;48.748;9.278;2023-05-10T13:24:37;3.83;;;2.90;;
11498;SDS011;5806;48.748;9.278;2023-05-10T13:27:05;3.63;;;2.80;;
11498;SDS011;5806;48.748;9.278;2023-05-10T13:29:32;2.33;;;2.10;;
11498;SDS011;5806;48.748;9.278;2023-05-10T13:32:00;3.10;;;2.60;;
11498;SDS011;5806;48.748;9.278;2023-05-10T13:34:27;2.03;;;1.80;;
11498;SDS011;5806;48.748;9.278;2023-05-10T13:36:55;3.73;;;2.23;;
11498;SDS011;5806;48.748;9.278;2023-05-10T13:39:22;2.50;;;1.90;;
11498;SDS011;5806;48.748;9.278;2023-05-10T13:41:50;2.90;;;2.10;;
11498;SDS011;5806;48.748;9.278;2023-05-10T13:44:17;3.93;;;2.20;;
11498;SDS011;5806;48.748;9.278;2023-05-10T13:46:46;3.00;;;2.20;;
11498;SDS011;5806;48.748;9.278;2023-05-10T13:49:14;2.77;;;2.13;;
11498;SDS011;5806;48.748;9.278;2023-05-10T13:51:43;2.03;;;1.83;;
11498;SDS011;5806;48.748;9.278;2023-05-10T13:54:10;3.20;;;2.20;;
11498;SDS011;5806;48.748;9.278;2023-05-10T13:56:38;2.90;;;2.10;;
11498;SDS011;5806;48.748;9.278;2023-05-10T13:59:06;2.73;;;1.80;;
11498;SDS011;5806;48.748;9.278;2023-05-10T14:01:34;1.30;;;1.20;;
11498;SDS011;5806;48.748;9.278;2023-05-10T14:04:02;2.20;;;1.47;;
11498;SDS011;5806;48.748;9.278;2023-05-10T14:06:29;1.37;;;1.27;;
11498;SDS011;5806;48.748;9.278;2023-05-10T14:08:56;1.50;;;1.40;;
11498;SDS011;5806;48.748;9.278;2023-05-10T14:11:24;4.47;;;1.70;;
11498;SDS011;5806;48.748;9.278;2023-05-10T14:13:51;2.13;;;1.67;;
11498;SDS011;5806;48.748;9.278;2023-05-10T14:16:19;1.90;;;1.70;;
11498;SDS011;5806;48.748;9.278;2023-05-10T14:18:47;2.53;;;1.63;;
11498;SDS011;5806;48.748;9.278;2023-05-10T14:21:14;1.53;;;1.43;;
11498;SDS011;5806;48.748;9.278;2023-05-10T14:23:42;4.03;;;1.67;;
11498;SDS011;5806;48.748;9.278;2023-05-10T14:26:09;2.63;;;1.60;;
11498;SDS011;5806;48.748;9.278;2023-05-10T14:28:37;2.30;;;1.67;;
11498;SDS011;5806;48.748;9.278;2023-05-10T14:31:05;1.97;;;1.30;;
11498;SDS011;5806;48.748;9.278;2023-05-10T14:33:32;1.53;;;1.43;;
11498;SDS011;5806;48.748;9.278;2023-05-10T14:35:59;1.27;;;1.17;;
11498;SDS011;5806;48.748;9.278;2023-05-10T14:38:28;2.93;;;2.27;;
11498;SDS011;5806;48.748;9.278;2023-05-10T14:40:56;2.57;;;2.20;;
11498;SDS011;5806;48.748;9.278;2023-05-10T14:43:23;2.73;;;1.83;;
11498;SDS011;5806;48.748;9.278;2023-05-10T14:45:53;2.07;;;1.87;;
11498;SDS011;5806;48.748;9.278;2023-05-10T14:48:20;2.17;;;1.80;;
11498;SDS011;5806;48.748;9.278;2023-05-10T14:50:48;2.30;;;2.00;;
11498;SDS011;5806;48.748;9.278;2023-05-10T14:53:15;2.70;;;1.90;;
11498;SDS011;5806;48.748;9.278;2023-05-10T14:55:43;3.47;;;1.70;;
11498;SDS011;5806;48.748;9.278;2023-05-10T14:58:10;5.73;;;1.70;;
11498;SDS011;5806;48.748;9.278;2023-05-10T15:00:38;2.83;;;1.80;;
11498;SDS011;5806;48.748;9.278;2023-05-10T15:03:05;2.87;;;1.57;;
11498;SDS011;5806;48.748;9.278;2023-05-10T15:05:33;2.23;;;1.70;;
11498;SDS011;5806;48.748;9.278;2023-05-10T15:08:02;1.80;;;1.70;;
11498;SDS011;5806;48.748;9.278;2023-05-10T15:10:31;3.43;;;1.73;;
11498;SDS011;5806;48.748;9.278;2023-05-10T15:12:58;1.60;;;1.40;;
11498;SDS011;5806;48.748;9.278;2023-05-10T15:15:26;1.90;;;1.40;;
11498;SDS011;5806;48.748;9.278;2023-05-10T15:17:53;4.00;;;2.67;;
11498;SDS011;5806;48.748;9.278;2023-05-10T15:20:21;5.83;;;4.57;;
11498;SDS011;5806;48.748;9.278;2023-05-10T15:22:48;7.60;;;5.37;;
11498;SDS011;5806;48.748;9.278;2023-05-10T15:25:16;10.10;;;6.20;;
11498;SDS011;5806;48.748;9.278;2023-05-10T15:27:43;12.50;;;8.33;;
11498;SDS011;5806;48.748;9.278;2023-05-10T15:30:11;9.90;;;7.63;;